SlovakiaFixed distance
Non-Stop Beh Hrebenom Nizkych Tatier
23 Jun2012
Distance
49km
Finishers
127111 men16 women
Winning time
4:47:24h
Median pace
7.41km/h
Pace distribution
127 finishers · 5.34–10.23 km/h · mean 7.51
Every finisher ran the same 49 km course, so these paces are directly comparable.
Histogram of finisher pace. 127 finishers ranged from 5.34 to 10.23 kilometres per hour, with a mean of 7.51 and a median of 7.41. The busiest band is 7.0 to 7.5 kilometres per hour, with 27 finishers.
Results
Ranks 1–50 of 127
| Rank | Runner | Time | Pace | Cat. | Placing |
|---|---|---|---|---|---|
| 1 | Cyklomania.SK | 4:47:24h | 10.23 | M40 | 1st M · 1st M40 |
| 2 | TJ Veterná Poruba | 5:00:09h | 9.79 | M23 | 2nd M · 1st M23 |
| 3 | Horoklub UMB | 5:00:09h | 9.79 | M23 | 2nd M · 1st M23 |
| 4 | Extreme-Team Ostrava | 5:07:47h | 9.55 | M45 | 4th M · 1st M45 |
| 5 | Svit | 5:09:03h | 9.51 | M35 | 5th M · 1st M35 |
| 6 | ŠK Panter Trnava | 5:09:21h | 9.50 | M35 | 6th M · 2nd M35 |
| 7 | OB Vizovice | 5:10:13h | 9.48 | M40 | 7th M · 2nd M40 |
| 8 | Sedmerovec | 5:11:17h | 9.45 | M40 | 8th M · 3rd M40 |
| 9 | Myjava | 5:11:59h | 9.42 | M50 | 9th M · 1st M50 |
| 10 | Farmaceut BA | 5:12:30h | 9.41 | M35 | 10th M · 3rd M35 |
| 11 | Malco Myjava | 5:16:05h | 9.30 | M45 | 11th M · 2nd M45 |
| 12 | Partizán Bardejov | 5:16:16h | 9.30 | M35 | 12th M · 4th M35 |
| 13 | Brezno | 5:18:13h | 9.24 | M23 | 13th M · 3rd M23 |
| 14 | UMB Banská Bystrica | 5:21:44h | 9.14 | — | 14th M |
| 15 | Všpk UK Bratislava | 5:25:27h | 9.03 | M23 | 15th M · 4th M23 |
| 16 | Myjava | 5:27:05h | 8.99 | — | 16th M |
| 17 | Košeca | 5:27:38h | 8.97 | M45 | 17th M · 3rd M45 |
| 18 | Horoklub UMB | 5:32:10h | 8.85 | M45 | 18th M · 4th M45 |
| 19 | SVK Keţmarok | 5:32:45h | 8.84 | MU23 | 19th M · 1st MU23 |
| 20 | HK Ďumbier Brezno | 5:34:55h | 8.78 | M45 | 20th M · 5th M45 |
| 21 | R-Bike Dolný Kubín | 5:37:05h | 8.72 | — | 21st M |
| 22 | Brezno | 5:37:53h | 8.70 | M23 | 22nd M · 5th M23 |
| 23 | Frýdlant N/O | 5:39:57h | 8.65 | M23 | 23rd M · 6th M23 |
| 24 | Kajak Slávia | 5:41:43h | 8.60 | M23 | 24th M · 7th M23 |
| 25 | KKM Čadca | 5:42:20h | 8.59 | — | 25th M |
| 26 | Brezno | 5:48:36h | 8.43 | M23 | 26th M · 8th M23 |
| 27 | Košice | 5:51:12h | 8.37 | — | 27th M |
| 28 | KHB Radegast | 5:52:07h | 8.35 | M45 | 28th M · 6th M45 |
| 29 | Cross Country Club RA | 5:52:44h | 8.34 | M35 | 29th M · 5th M35 |
| 30 | Moravská Slávia Brno | 5:56:19h | 8.25 | M23 | 30th M · 9th M23 |
| 31 | Iscarex Česká Třebová | 5:56:57h | 8.24 | — | 31st M |
| 32 | ŠKP BO Batislava | 5:56:59h | 8.24 | — | 32nd M |
| 33 | Salomon BA | 5:58:48h | 8.19 | M23 | 33rd M · 10th M23 |
| 34 | Heľpa | 6:03:36h | 8.09 | M40 | 34th M · 4th M40 |
| 35 | Babiččina Běţecká BUŇ | 6:04:25h | 8.07 | MU23 | 35th M · 2nd MU23 |
| 36 | Farmaceut BA | 6:05:01h | 8.05 | W35 | 1st F · 1st W35 |
| 37 | Wataha Trial Team | 6:07:40h | 8.00 | — | 36th M |
| 38 | Karate Klub Atlant NI | 6:08:14h | 7.98 | M40 | 37th M · 5th M40 |
| 39 | Budapešť | 6:11:44h | 7.91 | M35 | 38th M · 6th M35 |
| 40 | Budapest | 6:11:45h | 7.91 | M40 | 39th M · 6th M40 |
| 41 | Maratón Klub Rajec | 6:12:36h | 7.89 | M50 | 40th M · 2nd M50 |
| 42 | BS Zvolen | 6:12:48h | 7.89 | M50 | 41st M · 3rd M50 |
| 43 | Cross Country Club RA | 6:13:36h | 7.87 | M50 | 42nd M · 4th M50 |
| 44 | HK James Liptovský HR | 6:14:49h | 7.84 | M45 | 43rd M · 7th M45 |
| 45 | Geriatrix BB | 6:14:49h | 7.84 | M35 | 43rd M · 7th M35 |
| 46 | Penati Bratislava | 6:17:53h | 7.78 | M45 | 45th M · 8th M45 |
| 47 | Kajak Slávia | 6:19:32h | 7.75 | M23 | 46th M · 11th M23 |
| 48 | Skialpklub Kríţna | 6:19:52h | 7.74 | M35 | 47th M · 8th M35 |
| 49 | Dlhe Diely | 6:20:40h | 7.72 | — | 48th M |
| 50 | Nezávislosť BA | 6:21:41h | 7.70 | W23 | 2nd F · 1st W23 |
- 1Cyklomania.SK1st M · 1st M40Time4:47:24hPace10.23Cat.M40
- 2TJ Veterná Poruba2nd M · 1st M23Time5:00:09hPace9.79Cat.M23
- 3Horoklub UMB2nd M · 1st M23Time5:00:09hPace9.79Cat.M23
- 4Extreme-Team Ostrava4th M · 1st M45Time5:07:47hPace9.55Cat.M45
- 5Svit5th M · 1st M35Time5:09:03hPace9.51Cat.M35
- 6ŠK Panter Trnava6th M · 2nd M35Time5:09:21hPace9.50Cat.M35
- 7OB Vizovice7th M · 2nd M40Time5:10:13hPace9.48Cat.M40
- 8Sedmerovec8th M · 3rd M40Time5:11:17hPace9.45Cat.M40
- 9Myjava9th M · 1st M50Time5:11:59hPace9.42Cat.M50
- 10Farmaceut BA10th M · 3rd M35Time5:12:30hPace9.41Cat.M35
- 11Malco Myjava11th M · 2nd M45Time5:16:05hPace9.30Cat.M45
- 12Partizán Bardejov12th M · 4th M35Time5:16:16hPace9.30Cat.M35
- 13Brezno13th M · 3rd M23Time5:18:13hPace9.24Cat.M23
- 14UMB Banská Bystrica14th MTime5:21:44hPace9.14
- 15Všpk UK Bratislava15th M · 4th M23Time5:25:27hPace9.03Cat.M23
- 16Myjava16th MTime5:27:05hPace8.99
- 17Košeca17th M · 3rd M45Time5:27:38hPace8.97Cat.M45
- 18Horoklub UMB18th M · 4th M45Time5:32:10hPace8.85Cat.M45
- 19SVK Keţmarok19th M · 1st MU23Time5:32:45hPace8.84Cat.MU23
- 20HK Ďumbier Brezno20th M · 5th M45Time5:34:55hPace8.78Cat.M45
- 21R-Bike Dolný Kubín21st MTime5:37:05hPace8.72
- 22Brezno22nd M · 5th M23Time5:37:53hPace8.70Cat.M23
- 23Frýdlant N/O23rd M · 6th M23Time5:39:57hPace8.65Cat.M23
- 24Kajak Slávia24th M · 7th M23Time5:41:43hPace8.60Cat.M23
- 25KKM Čadca25th MTime5:42:20hPace8.59
- 26Brezno26th M · 8th M23Time5:48:36hPace8.43Cat.M23
- 27Košice27th MTime5:51:12hPace8.37
- 28KHB Radegast28th M · 6th M45Time5:52:07hPace8.35Cat.M45
- 29Cross Country Club RA29th M · 5th M35Time5:52:44hPace8.34Cat.M35
- 30Moravská Slávia Brno30th M · 9th M23Time5:56:19hPace8.25Cat.M23
- 31Iscarex Česká Třebová31st MTime5:56:57hPace8.24
- 32ŠKP BO Batislava32nd MTime5:56:59hPace8.24
- 33Salomon BA33rd M · 10th M23Time5:58:48hPace8.19Cat.M23
- 34Heľpa34th M · 4th M40Time6:03:36hPace8.09Cat.M40
- 35Babiččina Běţecká BUŇ35th M · 2nd MU23Time6:04:25hPace8.07Cat.MU23
- 36Farmaceut BA1st F · 1st W35Time6:05:01hPace8.05Cat.W35
- 37Wataha Trial Team36th MTime6:07:40hPace8.00
- 38Karate Klub Atlant NI37th M · 5th M40Time6:08:14hPace7.98Cat.M40
- 39Budapešť38th M · 6th M35Time6:11:44hPace7.91Cat.M35
- 40Budapest39th M · 6th M40Time6:11:45hPace7.91Cat.M40
- 41Maratón Klub Rajec40th M · 2nd M50Time6:12:36hPace7.89Cat.M50
- 42BS Zvolen41st M · 3rd M50Time6:12:48hPace7.89Cat.M50
- 43Cross Country Club RA42nd M · 4th M50Time6:13:36hPace7.87Cat.M50
- 44HK James Liptovský HR43rd M · 7th M45Time6:14:49hPace7.84Cat.M45
- 45Geriatrix BB43rd M · 7th M35Time6:14:49hPace7.84Cat.M35
- 46Penati Bratislava45th M · 8th M45Time6:17:53hPace7.78Cat.M45
- 47Kajak Slávia46th M · 11th M23Time6:19:32hPace7.75Cat.M23
- 48Skialpklub Kríţna47th M · 8th M35Time6:19:52hPace7.74Cat.M35
- 49Dlhe Diely48th MTime6:20:40hPace7.72
- 50Nezávislosť BA2nd F · 1st W23Time6:21:41hPace7.70Cat.W23
Showing ranks 1–50 of 127